Chignik Lagoon, AK

10:40 PM AKDT on October 24, 2014 (GMT -0800)
Chignik | Change Station
CLOSE
Current Station
Airport
Location: Chignik,
Elevation: 16 ft
Nearby Weather Stations

Elev 16 ft 56.31 °N, 158.37 °W | Updated 4 minutes ago

Clear
Clear
39 °F
Feels Like 32 °F
N
12
Wind Variable Wind from WSW

Today
High -- | Low -- °F
--% Chance of Precip.
Yesterday
High -- | Low -- °F
Precip. -- in
9:24 AM 7:10 PM
New Moon, 2% visible
Pressure 30.02 in
Visibility 10.0 miles
Clouds Clear
Windchill 32 °F
Dew Point 27 °F
Humidity 61%
Rainfall 0.01 in
Snow Depth Not available.
UV 0 out of 12
Pollen Not available.
Air Quality Not available.
Flu Activity Local Activity
METAR PAJC 250636Z AUTO 25010KT 10SM CLR 04/M03 A3002 RMK AO1

More Conditions Fewer Conditions

Pressure 30.02 in
Visibility 10.0 miles
Clouds Clear
Windchill 32 °F
Dew Point 27 °F
Humidity 61%
Rainfall 0.01 in
Snow Depth Not available.
UV 0 out of 12
Pollen Not available.
Air Quality Not available.
Flu Activity Local Activity
METAR PAJC 250636Z AUTO 25010KT 10SM CLR 04/M03 A3002 RMK AO1

More Conditions Fewer Conditions

10-Day Weather Forecast

Almanac

Astronomy

Oct. 24, 2014 Rise Set
Actual Time 9:24 AM AKDT 7:10 PM AKDT
Civil Twilight 8:46 AM AKDT 7:48 PM AKDT
Nautical Twilight 8:02 AM AKDT 8:32 PM AKDT
Astronomical Twilight 7:19 AM AKDT 9:15 PM AKDT
Moon 10:23 AM AKDT (10/24) 7:47 PM AKDT (10/24)
Length of Visible Light 11h 02m
Length of Day
9h 45m
Tomorrow will be 4m 28s shorter.
New Moon, 2% of the Moon is Illuminated
Oct 25
New Moon
Oct 30
First Quarter
Nov 6
Full
Nov 14
Last Quarter
Nov 22
New

Community

WunderPhotos

Upload Photos

1,764,787 photos uploaded!

Nearby

Snow Depth

Station Depth Elevation
Port Graham 0 in 300 ft
Mcneil Canyon 1 in 1320 ft
MF Bradley River 0 in 2300 ft
Cooper Lake 1 in 1200 ft
Grouse Creek Divide 1 in 700 ft

Earthquake Activity

City Distance Mag. Time & Date
No recent earthquake activity has been reported nearby.
Minimum magnitude displayed is 2.5.

Coastal Water Temperatures

Place Temperature
No Stations Reporting

Nearby Weather Stations